sensor_id;sensor_type;location;lat;lon;timestamp;P1;durP1;ratioP1;P2;durP2;ratioP2
17943;SDS011;9097;47.028;15.444;2023-03-14T00:02:14;11.97;;;3.50;;
17943;SDS011;9097;47.028;15.444;2023-03-14T00:05:17;6.47;;;3.10;;
17943;SDS011;9097;47.028;15.444;2023-03-14T00:08:19;6.03;;;4.13;;
17943;SDS011;9097;47.028;15.444;2023-03-14T00:11:23;3.13;;;2.40;;
17943;SDS011;9097;47.028;15.444;2023-03-14T00:14:26;3.17;;;2.13;;
17943;SDS011;9097;47.028;15.444;2023-03-14T00:17:28;10.43;;;2.90;;
17943;SDS011;9097;47.028;15.444;2023-03-14T00:20:31;5.37;;;3.30;;
17943;SDS011;9097;47.028;15.444;2023-03-14T00:23:34;8.77;;;2.93;;
17943;SDS011;9097;47.028;15.444;2023-03-14T00:26:38;4.73;;;2.50;;
17943;SDS011;9097;47.028;15.444;2023-03-14T00:29:42;9.53;;;3.33;;
17943;SDS011;9097;47.028;15.444;2023-03-14T00:32:45;3.47;;;2.40;;
17943;SDS011;9097;47.028;15.444;2023-03-14T00:35:52;3.57;;;2.50;;
17943;SDS011;9097;47.028;15.444;2023-03-14T00:38:54;5.23;;;3.17;;
17943;SDS011;9097;47.028;15.444;2023-03-14T00:41:58;2.77;;;2.37;;
17943;SDS011;9097;47.028;15.444;2023-03-14T00:45:01;2.67;;;2.17;;
17943;SDS011;9097;47.028;15.444;2023-03-14T00:48:04;2.93;;;2.63;;
17943;SDS011;9097;47.028;15.444;2023-03-14T00:51:07;2.47;;;2.27;;
17943;SDS011;9097;47.028;15.444;2023-03-14T00:54:11;7.97;;;3.43;;
17943;SDS011;9097;47.028;15.444;2023-03-14T00:57:15;6.13;;;3.43;;
17943;SDS011;9097;47.028;15.444;2023-03-14T01:00:18;5.40;;;3.57;;
17943;SDS011;9097;47.028;15.444;2023-03-14T01:03:20;5.27;;;2.97;;
17943;SDS011;9097;47.028;15.444;2023-03-14T01:06:25;6.97;;;3.40;;
17943;SDS011;9097;47.028;15.444;2023-03-14T01:09:28;3.43;;;3.07;;
17943;SDS011;9097;47.028;15.444;2023-03-14T01:12:32;3.57;;;2.33;;
17943;SDS011;9097;47.028;15.444;2023-03-14T01:15:35;4.13;;;2.90;;
17943;SDS011;9097;47.028;15.444;2023-03-14T01:18:38;2.77;;;2.57;;
17943;SDS011;9097;47.028;15.444;2023-03-14T01:21:41;5.23;;;2.87;;
17943;SDS011;9097;47.028;15.444;2023-03-14T01:24:43;4.70;;;2.10;;
17943;SDS011;9097;47.028;15.444;2023-03-14T01:27:47;2.97;;;2.60;;
17943;SDS011;9097;47.028;15.444;2023-03-14T01:30:50;3.80;;;2.53;;
17943;SDS011;9097;47.028;15.444;2023-03-14T01:33:52;2.77;;;1.90;;
17943;SDS011;9097;47.028;15.444;2023-03-14T01:36:55;3.93;;;2.30;;
17943;SDS011;9097;47.028;15.444;2023-03-14T01:39:57;4.10;;;2.60;;
17943;SDS011;9097;47.028;15.444;2023-03-14T01:43:12;4.23;;;2.53;;
17943;SDS011;9097;47.028;15.444;2023-03-14T01:46:17;7.30;;;2.27;;
17943;SDS011;9097;47.028;15.444;2023-03-14T01:49:22;3.53;;;2.40;;
17943;SDS011;9097;47.028;15.444;2023-03-14T01:52:26;10.30;;;2.50;;
17943;SDS011;9097;47.028;15.444;2023-03-14T01:55:33;6.40;;;2.07;;
17943;SDS011;9097;47.028;15.444;2023-03-14T01:58:37;3.10;;;2.03;;
17943;SDS011;9097;47.028;15.444;2023-03-14T02:01:41;3.37;;;2.23;;
17943;SDS011;9097;47.028;15.444;2023-03-14T02:04:45;3.03;;;2.27;;
17943;SDS011;9097;47.028;15.444;2023-03-14T02:07:48;6.27;;;2.00;;
17943;SDS011;9097;47.028;15.444;2023-03-14T02:10:51;1.67;;;1.57;;
17943;SDS011;9097;47.028;15.444;2023-03-14T02:13:56;4.30;;;3.00;;
17943;SDS011;9097;47.028;15.444;2023-03-14T02:17:00;8.10;;;3.07;;
17943;SDS011;9097;47.028;15.444;2023-03-14T02:20:10;5.73;;;2.93;;
17943;SDS011;9097;47.028;15.444;2023-03-14T02:23:16;2.63;;;1.77;;
17943;SDS011;9097;47.028;15.444;2023-03-14T02:26:21;4.77;;;2.00;;
17943;SDS011;9097;47.028;15.444;2023-03-14T02:29:26;5.50;;;2.63;;
17943;SDS011;9097;47.028;15.444;2023-03-14T02:32:29;7.63;;;2.80;;
17943;SDS011;9097;47.028;15.444;2023-03-14T02:35:33;1.17;;;1.07;;
17943;SDS011;9097;47.028;15.444;2023-03-14T02:38:38;2.73;;;2.23;;
17943;SDS011;9097;47.028;15.444;2023-03-14T02:41:42;5.03;;;1.97;;
17943;SDS011;9097;47.028;15.444;2023-03-14T02:45:01;7.13;;;1.80;;
17943;SDS011;9097;47.028;15.444;2023-03-14T02:48:16;2.23;;;2.03;;
17943;SDS011;9097;47.028;15.444;2023-03-14T02:51:20;3.40;;;2.27;;
17943;SDS011;9097;47.028;15.444;2023-03-14T02:54:23;7.50;;;2.23;;
17943;SDS011;9097;47.028;15.444;2023-03-14T02:57:26;3.30;;;2.07;;
17943;SDS011;9097;47.028;15.444;2023-03-14T03:00:30;3.40;;;2.57;;
17943;SDS011;9097;47.028;15.444;2023-03-14T03:03:33;5.47;;;2.30;;
17943;SDS011;9097;47.028;15.444;2023-03-14T03:06:36;2.50;;;2.30;;
17943;SDS011;9097;47.028;15.444;2023-03-14T03:09:38;3.47;;;2.33;;
17943;SDS011;9097;47.028;15.444;2023-03-14T03:12:41;2.27;;;1.93;;
17943;SDS011;9097;47.028;15.444;2023-03-14T03:15:46;9.30;;;2.73;;
17943;SDS011;9097;47.028;15.444;2023-03-14T03:18:48;2.57;;;1.57;;
17943;SDS011;9097;47.028;15.444;2023-03-14T03:21:51;2.70;;;1.80;;
17943;SDS011;9097;47.028;15.444;2023-03-14T03:24:53;3.40;;;1.90;;
17943;SDS011;9097;47.028;15.444;2023-03-14T03:27:56;2.13;;;1.73;;
17943;SDS011;9097;47.028;15.444;2023-03-14T03:31:05;2.93;;;1.53;;
17943;SDS011;9097;47.028;15.444;2023-03-14T03:34:08;2.27;;;1.70;;
17943;SDS011;9097;47.028;15.444;2023-03-14T03:37:10;4.37;;;1.90;;
17943;SDS011;9097;47.028;15.444;2023-03-14T03:40:13;3.37;;;1.00;;
17943;SDS011;9097;47.028;15.444;2023-03-14T03:43:15;3.37;;;2.27;;
17943;SDS011;9097;47.028;15.444;2023-03-14T03:46:20;2.63;;;1.70;;
17943;SDS011;9097;47.028;15.444;2023-03-14T03:49:22;2.03;;;1.87;;
17943;SDS011;9097;47.028;15.444;2023-03-14T03:52:25;1.47;;;1.07;;
17943;SDS011;9097;47.028;15.444;2023-03-14T03:55:28;3.37;;;1.77;;
17943;SDS011;9097;47.028;15.444;2023-03-14T03:58:30;2.20;;;1.50;;
17943;SDS011;9097;47.028;15.444;2023-03-14T04:01:34;2.67;;;1.57;;
17943;SDS011;9097;47.028;15.444;2023-03-14T04:04:37;2.07;;;1.47;;
17943;SDS011;9097;47.028;15.444;2023-03-14T04:07:39;2.50;;;1.63;;
17943;SDS011;9097;47.028;15.444;2023-03-14T04:10:42;2.70;;;1.90;;
17943;SDS011;9097;47.028;15.444;2023-03-14T04:13:44;1.00;;;0.93;;
17943;SDS011;9097;47.028;15.444;2023-03-14T04:16:48;1.03;;;1.03;;
17943;SDS011;9097;47.028;15.444;2023-03-14T04:19:50;2.07;;;1.23;;
17943;SDS011;9097;47.028;15.444;2023-03-14T04:22:54;0.77;;;0.70;;
17943;SDS011;9097;47.028;15.444;2023-03-14T04:25:56;3.13;;;1.37;;
17943;SDS011;9097;47.028;15.444;2023-03-14T04:28:59;1.40;;;1.07;;
17943;SDS011;9097;47.028;15.444;2023-03-14T04:32:03;2.83;;;1.83;;
17943;SDS011;9097;47.028;15.444;2023-03-14T04:35:06;3.27;;;1.87;;
17943;SDS011;9097;47.028;15.444;2023-03-14T04:38:08;3.30;;;1.57;;
17943;SDS011;9097;47.028;15.444;2023-03-14T04:41:11;4.53;;;1.70;;
17943;SDS011;9097;47.028;15.444;2023-03-14T04:44:13;2.50;;;1.60;;
17943;SDS011;9097;47.028;15.444;2023-03-14T04:47:17;1.97;;;1.77;;
17943;SDS011;9097;47.028;15.444;2023-03-14T04:50:20;1.27;;;1.17;;
17943;SDS011;9097;47.028;15.444;2023-03-14T04:53:22;2.90;;;1.03;;
17943;SDS011;9097;47.028;15.444;2023-03-14T04:56:25;2.37;;;1.60;;
17943;SDS011;9097;47.028;15.444;2023-03-14T04:59:27;2.20;;;1.37;;
17943;SDS011;9097;47.028;15.444;2023-03-14T05:02:31;2.77;;;1.57;;
17943;SDS011;9097;47.028;15.444;2023-03-14T05:05:34;2.97;;;1.63;;
17943;SDS011;9097;47.028;15.444;2023-03-14T05:08:36;4.00;;;1.57;;
17943;SDS011;9097;47.028;15.444;2023-03-14T05:11:39;1.40;;;1.27;;
17943;SDS011;9097;47.028;15.444;2023-03-14T05:14:41;3.13;;;1.50;;
17943;SDS011;9097;47.028;15.444;2023-03-14T05:17:45;3.37;;;2.17;;
17943;SDS011;9097;47.028;15.444;2023-03-14T05:20:50;1.87;;;1.03;;
17943;SDS011;9097;47.028;15.444;2023-03-14T05:23:53;4.23;;;2.10;;
17943;SDS011;9097;47.028;15.444;2023-03-14T05:26:55;2.63;;;1.47;;
17943;SDS011;9097;47.028;15.444;2023-03-14T05:29:58;1.47;;;1.37;;
17943;SDS011;9097;47.028;15.444;2023-03-14T05:33:02;1.60;;;1.50;;
17943;SDS011;9097;47.028;15.444;2023-03-14T05:36:05;0.80;;;0.80;;
17943;SDS011;9097;47.028;15.444;2023-03-14T05:39:07;3.57;;;1.67;;
17943;SDS011;9097;47.028;15.444;2023-03-14T05:42:10;3.17;;;1.20;;
17943;SDS011;9097;47.028;15.444;2023-03-14T05:45:13;1.70;;;1.20;;
17943;SDS011;9097;47.028;15.444;2023-03-14T05:48:17;3.87;;;1.80;;
17943;SDS011;9097;47.028;15.444;2023-03-14T05:51:21;1.53;;;0.93;;
17943;SDS011;9097;47.028;15.444;2023-03-14T05:54:24;1.57;;;1.47;;
17943;SDS011;9097;47.028;15.444;2023-03-14T05:57:26;2.20;;;1.00;;
17943;SDS011;9097;47.028;15.444;2023-03-14T06:00:29;1.40;;;1.27;;
17943;SDS011;9097;47.028;15.444;2023-03-14T06:03:33;1.30;;;1.20;;
17943;SDS011;9097;47.028;15.444;2023-03-14T06:06:35;2.03;;;1.37;;
17943;SDS011;9097;47.028;15.444;2023-03-14T06:09:38;1.33;;;0.97;;
17943;SDS011;9097;47.028;15.444;2023-03-14T06:12:40;8.37;;;1.70;;
17943;SDS011;9097;47.028;15.444;2023-03-14T06:15:43;1.30;;;1.23;;
17943;SDS011;9097;47.028;15.444;2023-03-14T06:18:48;2.53;;;1.43;;
17943;SDS011;9097;47.028;15.444;2023-03-14T06:21:52;6.03;;;1.07;;
17943;SDS011;9097;47.028;15.444;2023-03-14T06:24:54;1.50;;;1.33;;
17943;SDS011;9097;47.028;15.444;2023-03-14T06:27:57;2.50;;;1.63;;
17943;SDS011;9097;47.028;15.444;2023-03-14T06:30:59;3.80;;;1.77;;
17943;SDS011;9097;47.028;15.444;2023-03-14T06:34:03;4.23;;;1.53;;
17943;SDS011;9097;47.028;15.444;2023-03-14T06:37:06;3.40;;;2.23;;
17943;SDS011;9097;47.028;15.444;2023-03-14T06:40:09;2.03;;;1.17;;
17943;SDS011;9097;47.028;15.444;2023-03-14T06:43:13;5.93;;;1.37;;
17943;SDS011;9097;47.028;15.444;2023-03-14T06:46:15;3.07;;;1.80;;
17943;SDS011;9097;47.028;15.444;2023-03-14T06:49:19;3.43;;;1.33;;
17943;SDS011;9097;47.028;15.444;2023-03-14T06:52:21;1.20;;;1.07;;
17943;SDS011;9097;47.028;15.444;2023-03-14T06:55:24;2.77;;;2.30;;
17943;SDS011;9097;47.028;15.444;2023-03-14T06:58:27;3.73;;;2.57;;
17943;SDS011;9097;47.028;15.444;2023-03-14T07:01:30;5.10;;;2.50;;
17943;SDS011;9097;47.028;15.444;2023-03-14T07:04:36;4.93;;;2.23;;
17943;SDS011;9097;47.028;15.444;2023-03-14T07:07:39;1.93;;;1.63;;
17943;SDS011;9097;47.028;15.444;2023-03-14T07:10:41;2.67;;;1.43;;
17943;SDS011;9097;47.028;15.444;2023-03-14T07:13:44;4.77;;;1.40;;
17943;SDS011;9097;47.028;15.444;2023-03-14T07:16:46;2.50;;;1.67;;
17943;SDS011;9097;47.028;15.444;2023-03-14T07:19:50;1.63;;;1.30;;
17943;SDS011;9097;47.028;15.444;2023-03-14T07:22:53;4.20;;;1.10;;
17943;SDS011;9097;47.028;15.444;2023-03-14T07:25:55;1.70;;;1.60;;
17943;SDS011;9097;47.028;15.444;2023-03-14T07:28:58;2.60;;;1.23;;
17943;SDS011;9097;47.028;15.444;2023-03-14T07:32:03;1.40;;;1.30;;
17943;SDS011;9097;47.028;15.444;2023-03-14T07:35:08;2.27;;;1.53;;
17943;SDS011;9097;47.028;15.444;2023-03-14T07:38:11;1.93;;;1.83;;
17943;SDS011;9097;47.028;15.444;2023-03-14T07:41:13;2.40;;;1.43;;
17943;SDS011;9097;47.028;15.444;2023-03-14T07:44:16;2.20;;;1.13;;
17943;SDS011;9097;47.028;15.444;2023-03-14T07:47:18;1.10;;;0.90;;
17943;SDS011;9097;47.028;15.444;2023-03-14T07:50:22;1.57;;;1.20;;
17943;SDS011;9097;47.028;15.444;2023-03-14T07:53:25;1.07;;;0.93;;
17943;SDS011;9097;47.028;15.444;2023-03-14T07:56:28;2.60;;;1.43;;
17943;SDS011;9097;47.028;15.444;2023-03-14T07:59:30;3.10;;;1.53;;
17943;SDS011;9097;47.028;15.444;2023-03-14T08:02:33;1.50;;;1.03;;
17943;SDS011;9097;47.028;15.444;2023-03-14T08:05:38;1.37;;;0.77;;
17943;SDS011;9097;47.028;15.444;2023-03-14T08:08:42;0.90;;;0.70;;
17943;SDS011;9097;47.028;15.444;2023-03-14T08:11:44;0.40;;;0.33;;
17943;SDS011;9097;47.028;15.444;2023-03-14T08:14:47;0.30;;;0.30;;
17943;SDS011;9097;47.028;15.444;2023-03-14T08:17:49;0.90;;;0.50;;
17943;SDS011;9097;47.028;15.444;2023-03-14T08:20:55;1.20;;;0.73;;
17943;SDS011;9097;47.028;15.444;2023-03-14T08:23:58;3.30;;;0.60;;
17943;SDS011;9097;47.028;15.444;2023-03-14T08:27:01;1.17;;;0.47;;
17943;SDS011;9097;47.028;15.444;2023-03-14T08:30:03;0.77;;;0.50;;
17943;SDS011;9097;47.028;15.444;2023-03-14T08:33:06;0.20;;;0.13;;
17943;SDS011;9097;47.028;15.444;2023-03-14T08:36:11;0.73;;;0.40;;
17943;SDS011;9097;47.028;15.444;2023-03-14T08:39:13;0.30;;;0.30;;
17943;SDS011;9097;47.028;15.444;2023-03-14T08:42:16;1.92;;;0.75;;
17943;SDS011;9097;47.028;15.444;2023-03-14T08:45:19;0.55;;;0.55;;
17943;SDS011;9097;47.028;15.444;2023-03-14T08:48:21;0.57;;;0.30;;
17943;SDS011;9097;47.028;15.444;2023-03-14T08:51:25;0.32;;;0.30;;
17943;SDS011;9097;47.028;15.444;2023-03-14T08:54:28;0.65;;;0.50;;
17943;SDS011;9097;47.028;15.444;2023-03-14T08:57:31;0.90;;;0.30;;
17943;SDS011;9097;47.028;15.444;2023-03-14T09:00:33;0.17;;;0.17;;
17943;SDS011;9097;47.028;15.444;2023-03-14T09:03:36;0.30;;;0.30;;
17943;SDS011;9097;47.028;15.444;2023-03-14T09:06:41;0.32;;;0.28;;
17943;SDS011;9097;47.028;15.444;2023-03-14T09:09:44;0.43;;;0.43;;
17943;SDS011;9097;47.028;15.444;2023-03-14T09:12:46;1.70;;;0.65;;
17943;SDS011;9097;47.028;15.444;2023-03-14T09:15:50;0.90;;;0.52;;
17943;SDS011;9097;47.028;15.444;2023-03-14T09:18:52;0.20;;;0.20;;
17943;SDS011;9097;47.028;15.444;2023-03-14T09:21:59;0.40;;;0.22;;
17943;SDS011;9097;47.028;15.444;2023-03-14T09:25:01;0.40;;;0.40;;
17943;SDS011;9097;47.028;15.444;2023-03-14T09:28:04;0.25;;;0.20;;
17943;SDS011;9097;47.028;15.444;2023-03-14T09:31:07;2.28;;;0.38;;
17943;SDS011;9097;47.028;15.444;2023-03-14T09:34:10;0.40;;;0.32;;
17943;SDS011;9097;47.028;15.444;2023-03-14T09:37:14;0.20;;;0.20;;
17943;SDS011;9097;47.028;15.444;2023-03-14T09:40:18;2.38;;;0.40;;
17943;SDS011;9097;47.028;15.444;2023-03-14T09:43:20;0.20;;;0.20;;
17943;SDS011;9097;47.028;15.444;2023-03-14T09:46:24;0.30;;;0.30;;
17943;SDS011;9097;47.028;15.444;2023-03-14T09:49:27;2.35;;;0.75;;
17943;SDS011;9097;47.028;15.444;2023-03-14T09:52:32;0.20;;;0.20;;
17943;SDS011;9097;47.028;15.444;2023-03-14T09:55:35;0.85;;;0.30;;
17943;SDS011;9097;47.028;15.444;2023-03-14T09:58:39;0.52;;;0.20;;
17943;SDS011;9097;47.028;15.444;2023-03-14T10:01:43;0.40;;;0.28;;
17943;SDS011;9097;47.028;15.444;2023-03-14T10:04:45;0.20;;;0.20;;
17943;SDS011;9097;47.028;15.444;2023-03-14T10:07:50;0.30;;;0.20;;
17943;SDS011;9097;47.028;15.444;2023-03-14T10:10:52;0.40;;;0.10;;
17943;SDS011;9097;47.028;15.444;2023-03-14T10:14:03;0.32;;;0.22;;
17943;SDS011;9097;47.028;15.444;2023-03-14T10:17:07;0.20;;;0.20;;
17943;SDS011;9097;47.028;15.444;2023-03-14T10:20:25;0.60;;;0.43;;
17943;SDS011;9097;47.028;15.444;2023-03-14T10:23:34;0.20;;;0.20;;
17943;SDS011;9097;47.028;15.444;2023-03-14T10:26:37;0.52;;;0.15;;
17943;SDS011;9097;47.028;15.444;2023-03-14T10:29:50;0.65;;;0.60;;
17943;SDS011;9097;47.028;15.444;2023-03-14T10:32:55;0.57;;;0.50;;
17943;SDS011;9097;47.028;15.444;2023-03-14T10:35:59;0.35;;;0.35;;
17943;SDS011;9097;47.028;15.444;2023-03-14T10:39:16;0.50;;;0.32;;
17943;SDS011;9097;47.028;15.444;2023-03-14T10:42:25;0.40;;;0.40;;
17943;SDS011;9097;47.028;15.444;2023-03-14T10:45:31;0.30;;;0.30;;
17943;SDS011;9097;47.028;15.444;2023-03-14T10:48:34;0.32;;;0.22;;
17943;SDS011;9097;47.028;15.444;2023-03-14T10:51:37;0.52;;;0.40;;
17943;SDS011;9097;47.028;15.444;2023-03-14T10:54:41;0.20;;;0.20;;
17943;SDS011;9097;47.028;15.444;2023-03-14T10:57:48;0.00;;;0.00;;
17943;SDS011;9097;47.028;15.444;2023-03-14T11:00:54;0.40;;;0.10;;
17943;SDS011;9097;47.028;15.444;2023-03-14T11:04:01;0.15;;;0.10;;
17943;SDS011;9097;47.028;15.444;2023-03-14T11:07:06;0.32;;;0.10;;
17943;SDS011;9097;47.028;15.444;2023-03-14T11:10:17;0.00;;;0.00;;
17943;SDS011;9097;47.028;15.444;2023-03-14T11:13:21;0.10;;;0.10;;
17943;SDS011;9097;47.028;15.444;2023-03-14T11:16:27;0.73;;;0.73;;
17943;SDS011;9097;47.028;15.444;2023-03-14T11:19:41;0.05;;;0.00;;
17943;SDS011;9097;47.028;15.444;2023-03-14T11:22:47;0.22;;;0.17;;
17943;SDS011;9097;47.028;15.444;2023-03-14T11:25:56;0.00;;;0.00;;
17943;SDS011;9097;47.028;15.444;2023-03-14T11:29:02;0.00;;;0.00;;
17943;SDS011;9097;47.028;15.444;2023-03-14T11:32:10;0.00;;;0.00;;
17943;SDS011;9097;47.028;15.444;2023-03-14T11:35:16;0.68;;;0.20;;
17943;SDS011;9097;47.028;15.444;2023-03-14T11:38:26;0.08;;;0.08;;
17943;SDS011;9097;47.028;15.444;2023-03-14T11:41:32;0.22;;;0.05;;
17943;SDS011;9097;47.028;15.444;2023-03-14T11:44:36;0.35;;;0.30;;
17943;SDS011;9097;47.028;15.444;2023-03-14T11:47:39;0.17;;;0.00;;
17943;SDS011;9097;47.028;15.444;2023-03-14T11:50:43;0.08;;;0.08;;
17943;SDS011;9097;47.028;15.444;2023-03-14T11:53:51;0.45;;;0.32;;
17943;SDS011;9097;47.028;15.444;2023-03-14T11:56:57;0.80;;;0.60;;
17943;SDS011;9097;47.028;15.444;2023-03-14T12:00:00;0.35;;;0.22;;
17943;SDS011;9097;47.028;15.444;2023-03-14T12:03:07;0.10;;;0.00;;
17943;SDS011;9097;47.028;15.444;2023-03-14T12:06:14;0.17;;;0.03;;
17943;SDS011;9097;47.028;15.444;2023-03-14T12:09:18;0.05;;;0.05;;
17943;SDS011;9097;47.028;15.444;2023-03-14T12:12:24;0.35;;;0.10;;
17943;SDS011;9097;47.028;15.444;2023-03-14T12:15:27;0.28;;;0.10;;
17943;SDS011;9097;47.028;15.444;2023-03-14T12:18:30;0.03;;;0.03;;
17943;SDS011;9097;47.028;15.444;2023-03-14T12:21:43;1.17;;;0.20;;
17943;SDS011;9097;47.028;15.444;2023-03-14T12:24:47;0.10;;;0.00;;
17943;SDS011;9097;47.028;15.444;2023-03-14T12:34:34;0.10;;;0.10;;
17943;SDS011;9097;47.028;15.444;2023-03-14T12:37:36;1.10;;;0.30;;
17943;SDS011;9097;47.028;15.444;2023-03-14T12:40:47;0.38;;;0.10;;
17943;SDS011;9097;47.028;15.444;2023-03-14T12:43:52;0.60;;;0.30;;
17943;SDS011;9097;47.028;15.444;2023-03-14T12:46:54;0.17;;;0.17;;
17943;SDS011;9097;47.028;15.444;2023-03-14T12:50:00;1.00;;;0.22;;
17943;SDS011;9097;47.028;15.444;2023-03-14T12:53:22;0.43;;;0.35;;
17943;SDS011;9097;47.028;15.444;2023-03-14T12:56:36;1.90;;;0.82;;
17943;SDS011;9097;47.028;15.444;2023-03-14T12:59:45;0.10;;;0.10;;
17943;SDS011;9097;47.028;15.444;2023-03-14T13:02:49;0.22;;;0.10;;
17943;SDS011;9097;47.028;15.444;2023-03-14T13:05:54;1.17;;;0.25;;
17943;SDS011;9097;47.028;15.444;2023-03-14T13:08:57;0.08;;;0.05;;
17943;SDS011;9097;47.028;15.444;2023-03-14T13:12:00;0.40;;;0.28;;
17943;SDS011;9097;47.028;15.444;2023-03-14T13:15:13;0.17;;;0.10;;
17943;SDS011;9097;47.028;15.444;2023-03-14T13:18:17;0.30;;;0.25;;
17943;SDS011;9097;47.028;15.444;2023-03-14T13:21:23;0.10;;;0.10;;
17943;SDS011;9097;47.028;15.444;2023-03-14T13:24:26;3.22;;;0.30;;
17943;SDS011;9097;47.028;15.444;2023-03-14T13:27:31;0.15;;;0.10;;
17943;SDS011;9097;47.028;15.444;2023-03-14T13:30:39;1.80;;;0.70;;
17943;SDS011;9097;47.028;15.444;2023-03-14T13:33:42;0.13;;;0.13;;
17943;SDS011;9097;47.028;15.444;2023-03-14T13:36:46;1.55;;;0.32;;
17943;SDS011;9097;47.028;15.444;2023-03-14T13:39:50;0.30;;;0.20;;
17943;SDS011;9097;47.028;15.444;2023-03-14T13:43:04;0.10;;;0.10;;
17943;SDS011;9097;47.028;15.444;2023-03-14T13:46:12;0.25;;;0.22;;
17943;SDS011;9097;47.028;15.444;2023-03-14T13:49:17;0.00;;;0.00;;
17943;SDS011;9097;47.028;15.444;2023-03-14T13:52:29;0.45;;;0.25;;
17943;SDS011;9097;47.028;15.444;2023-03-14T13:55:32;0.05;;;0.05;;
17943;SDS011;9097;47.028;15.444;2023-03-14T13:58:36;0.22;;;0.10;;
17943;SDS011;9097;47.028;15.444;2023-03-14T14:01:39;0.50;;;0.30;;
17943;SDS011;9097;47.028;15.444;2023-03-14T14:04:42;0.20;;;0.20;;
17943;SDS011;9097;47.028;15.444;2023-03-14T14:07:46;0.10;;;0.10;;
17943;SDS011;9097;47.028;15.444;2023-03-14T14:10:48;0.10;;;0.10;;
17943;SDS011;9097;47.028;15.444;2023-03-14T14:13:51;0.57;;;0.28;;
17943;SDS011;9097;47.028;15.444;2023-03-14T14:16:54;0.00;;;0.00;;
17943;SDS011;9097;47.028;15.444;2023-03-14T14:19:58;0.10;;;0.10;;
17943;SDS011;9097;47.028;15.444;2023-03-14T14:23:05;0.93;;;0.25;;
17943;SDS011;9097;47.028;15.444;2023-03-14T14:26:13;3.75;;;0.38;;
17943;SDS011;9097;47.028;15.444;2023-03-14T14:29:21;0.00;;;0.00;;
17943;SDS011;9097;47.028;15.444;2023-03-14T14:32:34;0.00;;;0.00;;
17943;SDS011;9097;47.028;15.444;2023-03-14T14:35:38;0.57;;;0.30;;
17943;SDS011;9097;47.028;15.444;2023-03-14T14:38:42;0.50;;;0.20;;
17943;SDS011;9097;47.028;15.444;2023-03-14T14:41:51;0.38;;;0.32;;
17943;SDS011;9097;47.028;15.444;2023-03-14T14:44:55;0.30;;;0.25;;
17943;SDS011;9097;47.028;15.444;2023-03-14T14:48:02;0.40;;;0.20;;
17943;SDS011;9097;47.028;15.444;2023-03-14T14:51:07;0.25;;;0.15;;
17943;SDS011;9097;47.028;15.444;2023-03-14T14:54:12;1.17;;;0.63;;
17943;SDS011;9097;47.028;15.444;2023-03-14T14:57:17;0.28;;;0.20;;
17943;SDS011;9097;47.028;15.444;2023-03-14T15:00:22;0.40;;;0.10;;
17943;SDS011;9097;47.028;15.444;2023-03-14T15:03:28;0.85;;;0.45;;
17943;SDS011;9097;47.028;15.444;2023-03-14T15:06:32;0.10;;;0.10;;
17943;SDS011;9097;47.028;15.444;2023-03-14T15:09:36;0.10;;;0.10;;
17943;SDS011;9097;47.028;15.444;2023-03-14T15:12:38;0.68;;;0.30;;
17943;SDS011;9097;47.028;15.444;2023-03-14T15:15:41;0.10;;;0.10;;
17943;SDS011;9097;47.028;15.444;2023-03-14T15:18:52;0.52;;;0.25;;
17943;SDS011;9097;47.028;15.444;2023-03-14T15:21:56;0.10;;;0.10;;
17943;SDS011;9097;47.028;15.444;2023-03-14T15:25:00;0.45;;;0.20;;
17943;SDS011;9097;47.028;15.444;2023-03-14T15:28:02;0.20;;;0.20;;
17943;SDS011;9097;47.028;15.444;2023-03-14T15:31:05;1.20;;;0.60;;
17943;SDS011;9097;47.028;15.444;2023-03-14T15:34:10;1.20;;;0.60;;
17943;SDS011;9097;47.028;15.444;2023-03-14T15:37:13;0.32;;;0.30;;
17943;SDS011;9097;47.028;15.444;2023-03-14T15:40:18;0.38;;;0.28;;
17943;SDS011;9097;47.028;15.444;2023-03-14T15:43:21;2.17;;;0.25;;
17943;SDS011;9097;47.028;15.444;2023-03-14T15:46:23;1.25;;;0.40;;
17943;SDS011;9097;47.028;15.444;2023-03-14T15:49:26;0.30;;;0.30;;
17943;SDS011;9097;47.028;15.444;2023-03-14T15:52:28;0.98;;;0.50;;
17943;SDS011;9097;47.028;15.444;2023-03-14T15:55:32;0.20;;;0.20;;
17943;SDS011;9097;47.028;15.444;2023-03-14T15:58:37;1.10;;;0.70;;
17943;SDS011;9097;47.028;15.444;2023-03-14T16:01:40;0.63;;;0.50;;
17943;SDS011;9097;47.028;15.444;2023-03-14T16:04:42;0.75;;;0.30;;
17943;SDS011;9097;47.028;15.444;2023-03-14T16:07:45;1.45;;;0.57;;
17943;SDS011;9097;47.028;15.444;2023-03-14T16:10:49;0.00;;;0.00;;
17943;SDS011;9097;47.028;15.444;2023-03-14T16:13:52;0.50;;;0.32;;
17943;SDS011;9097;47.028;15.444;2023-03-14T16:16:54;2.17;;;0.85;;
17943;SDS011;9097;47.028;15.444;2023-03-14T16:19:59;0.43;;;0.28;;
17943;SDS011;9097;47.028;15.444;2023-03-14T16:23:01;1.42;;;0.50;;
17943;SDS011;9097;47.028;15.444;2023-03-14T16:26:06;0.40;;;0.40;;
17943;SDS011;9097;47.028;15.444;2023-03-14T16:29:09;0.28;;;0.28;;
17943;SDS011;9097;47.028;15.444;2023-03-14T16:32:11;0.52;;;0.47;;
17943;SDS011;9097;47.028;15.444;2023-03-14T16:35:14;0.20;;;0.20;;
17943;SDS011;9097;47.028;15.444;2023-03-14T16:38:17;0.40;;;0.40;;
17943;SDS011;9097;47.028;15.444;2023-03-14T16:41:21;0.20;;;0.20;;
17943;SDS011;9097;47.028;15.444;2023-03-14T16:44:23;1.35;;;0.63;;
17943;SDS011;9097;47.028;15.444;2023-03-14T16:47:26;0.30;;;0.30;;
17943;SDS011;9097;47.028;15.444;2023-03-14T16:50:30;0.90;;;0.90;;
17943;SDS011;9097;47.028;15.444;2023-03-14T16:53:32;0.38;;;0.25;;
17943;SDS011;9097;47.028;15.444;2023-03-14T16:56:36;0.63;;;0.57;;
17943;SDS011;9097;47.028;15.444;2023-03-14T16:59:39;1.43;;;0.40;;
17943;SDS011;9097;47.028;15.444;2023-03-14T17:02:41;0.40;;;0.33;;
17943;SDS011;9097;47.028;15.444;2023-03-14T17:05:44;0.60;;;0.43;;
17943;SDS011;9097;47.028;15.444;2023-03-14T17:08:47;1.10;;;0.30;;
17943;SDS011;9097;47.028;15.444;2023-03-14T17:11:51;0.40;;;0.30;;
17943;SDS011;9097;47.028;15.444;2023-03-14T17:14:55;0.20;;;0.20;;
17943;SDS011;9097;47.028;15.444;2023-03-14T17:17:57;0.70;;;0.40;;
17943;SDS011;9097;47.028;15.444;2023-03-14T17:21:02;0.27;;;0.20;;
17943;SDS011;9097;47.028;15.444;2023-03-14T17:24:05;0.60;;;0.17;;
17943;SDS011;9097;47.028;15.444;2023-03-14T17:27:09;0.10;;;0.10;;
17943;SDS011;9097;47.028;15.444;2023-03-14T17:30:13;1.20;;;0.53;;
17943;SDS011;9097;47.028;15.444;2023-03-14T17:33:15;0.40;;;0.27;;
17943;SDS011;9097;47.028;15.444;2023-03-14T17:36:18;1.00;;;0.50;;
17943;SDS011;9097;47.028;15.444;2023-03-14T17:39:21;0.57;;;0.20;;
17943;SDS011;9097;47.028;15.444;2023-03-14T17:42:25;0.37;;;0.37;;
17943;SDS011;9097;47.028;15.444;2023-03-14T17:45:28;0.23;;;0.10;;
17943;SDS011;9097;47.028;15.444;2023-03-14T17:48:31;0.20;;;0.20;;
17943;SDS011;9097;47.028;15.444;2023-03-14T17:51:33;0.83;;;0.33;;
17943;SDS011;9097;47.028;15.444;2023-03-14T17:54:36;0.93;;;0.47;;
17943;SDS011;9097;47.028;15.444;2023-03-14T17:57:40;0.40;;;0.30;;
17943;SDS011;9097;47.028;15.444;2023-03-14T18:00:44;0.80;;;0.57;;
17943;SDS011;9097;47.028;15.444;2023-03-14T18:03:46;1.43;;;0.50;;
17943;SDS011;9097;47.028;15.444;2023-03-14T18:06:49;0.33;;;0.23;;
17943;SDS011;9097;47.028;15.444;2023-03-14T18:09:51;2.77;;;1.13;;
17943;SDS011;9097;47.028;15.444;2023-03-14T18:12:55;0.43;;;0.20;;
17943;SDS011;9097;47.028;15.444;2023-03-14T18:15:58;0.53;;;0.50;;
17943;SDS011;9097;47.028;15.444;2023-03-14T18:19:01;0.33;;;0.33;;
17943;SDS011;9097;47.028;15.444;2023-03-14T18:22:03;1.00;;;0.57;;
17943;SDS011;9097;47.028;15.444;2023-03-14T18:25:06;2.23;;;0.43;;
17943;SDS011;9097;47.028;15.444;2023-03-14T18:28:12;0.67;;;0.27;;
17943;SDS011;9097;47.028;15.444;2023-03-14T18:31:14;0.30;;;0.20;;
17943;SDS011;9097;47.028;15.444;2023-03-14T18:34:21;0.57;;;0.40;;
17943;SDS011;9097;47.028;15.444;2023-03-14T18:37:23;0.90;;;0.50;;